SWA659 KIND-KRSW
Flight info
| Callsign | SWA659 |
|---|---|
| Flight time | 2h 5m |
| Altitude | 39000 |
| Route | DAWNN1 MYS BWG KT33O LGC WYATT BULZI NICKI PLYER TYNEE4 |
| Aircraft | B737/M-SADE2E3GIJ4RWZ/LB1D1 |
Departure
| Time | 2026-04-29 18:12 |
|---|---|
| Airport | Indianapolis International Airport (KIND) |
Arrival
| Time | 2026-04-29 20:17 |
|---|---|
| Airport | Southwest Florida International Airport (KRSW) |
| Time | Latitude | Longitude | Altitude | Speed | Heading |
|---|---|---|---|---|---|
| 2026-04-29 17:46 | 39.71788 | -86.29600 | 786 ft | 0 kts | 310° |
| 2026-04-29 18:02 | 39.71775 | -86.29579 | 786 ft | 4 kts | 311° |
| 2026-04-29 18:02 | 39.71759 | -86.29557 | 786 ft | 2 kts | 322° |
| 2026-04-29 18:02 | 39.71748 | -86.29549 | 786 ft | 2 kts | 348° |
| 2026-04-29 18:02 | 39.71737 | -86.29549 | 786 ft | 2 kts | 22° |
| 2026-04-29 18:03 | 39.71727 | -86.29556 | 786 ft | 2 kts | 37° |
| 2026-04-29 18:03 | 39.71719 | -86.29565 | 786 ft | 2 kts | 43° |
| 2026-04-29 18:03 | 39.71711 | -86.29574 | 786 ft | 2 kts | 44° |
| 2026-04-29 18:03 | 39.71705 | -86.29582 | 786 ft | 0 kts | 45° |
| 2026-04-29 18:06 | 39.71712 | -86.29573 | 785 ft | 7 kts | 45° |
| 2026-04-29 18:06 | 39.71767 | -86.29510 | 785 ft | 12 kts | 39° |
| 2026-04-29 18:06 | 39.71830 | -86.29445 | 786 ft | 11 kts | 29° |
| 2026-04-29 18:07 | 39.71898 | -86.29480 | 786 ft | 12 kts | 309° |
| 2026-04-29 18:07 | 39.71954 | -86.29571 | 785 ft | 13 kts | 309° |
| 2026-04-29 18:07 | 39.72009 | -86.29659 | 785 ft | 12 kts | 309° |
| 2026-04-29 18:07 | 39.72079 | -86.29668 | 784 ft | 10 kts | 37° |
| 2026-04-29 18:08 | 39.72134 | -86.29611 | 783 ft | 10 kts | 37° |
| 2026-04-29 18:08 | 39.72204 | -86.29632 | 780 ft | 13 kts | 315° |
| 2026-04-29 18:08 | 39.72281 | -86.29687 | 778 ft | 14 kts | 30° |
| 2026-04-29 18:08 | 39.72349 | -86.29603 | 778 ft | 13 kts | 45° |
| 2026-04-29 18:09 | 39.72417 | -86.29516 | 777 ft | 15 kts | 44° |
| 2026-04-29 18:09 | 39.72501 | -86.29410 | 776 ft | 18 kts | 44° |
| 2026-04-29 18:09 | 39.72587 | -86.29300 | 778 ft | 17 kts | 44° |
| 2026-04-29 18:09 | 39.72669 | -86.29196 | 779 ft | 14 kts | 44° |
| 2026-04-29 18:10 | 39.72728 | -86.29182 | 780 ft | 9 kts | 327° |
| 2026-04-29 18:10 | 39.72751 | -86.29210 | 780 ft | 2 kts | 315° |
| 2026-04-29 18:10 | 39.72761 | -86.29223 | 780 ft | 3 kts | 315° |
| 2026-04-29 18:10 | 39.72791 | -86.29263 | 779 ft | 8 kts | 315° |
| 2026-04-29 18:11 | 39.72796 | -86.29334 | 777 ft | 9 kts | 231° |
| 2026-04-29 18:11 | 39.72718 | -86.29435 | 777 ft | 39 kts | 225° |
| 2026-04-29 18:11 | 39.72331 | -86.29926 | 779 ft | 113 kts | 224° |
| 2026-04-29 18:11 | 39.71617 | -86.30832 | 813 ft | 169 kts | 227° |
| 2026-04-29 18:12 | 39.70733 | -86.31936 | 1427 ft | 180 kts | 227° |
| 2026-04-29 18:12 | 39.69822 | -86.33002 | 2344 ft | 178 kts | 225° |
| 2026-04-29 18:12 | 39.68874 | -86.34067 | 3052 ft | 188 kts | 224° |
| 2026-04-29 18:12 | 39.67817 | -86.35269 | 3349 ft | 215 kts | 225° |
| 2026-04-29 18:13 | 39.66624 | -86.36633 | 3613 ft | 244 kts | 219° |
| 2026-04-29 18:13 | 39.64979 | -86.37479 | 4152 ft | 267 kts | 186° |
| 2026-04-29 18:13 | 39.63112 | -86.37192 | 4977 ft | 275 kts | 169° |
| 2026-04-29 18:13 | 39.61236 | -86.36619 | 5828 ft | 279 kts | 170° |
| 2026-04-29 18:14 | 39.59330 | -86.36091 | 6739 ft | 281 kts | 172° |
| 2026-04-29 18:14 | 39.57395 | -86.35620 | 7652 ft | 284 kts | 173° |
| 2026-04-29 18:14 | 39.55428 | -86.35192 | 8552 ft | 288 kts | 174° |
| 2026-04-29 18:14 | 39.53431 | -86.34788 | 9461 ft | 292 kts | 175° |
| 2026-04-29 18:15 | 39.51403 | -86.34401 | 10376 ft | 296 kts | 176° |
| 2026-04-29 18:15 | 39.49297 | -86.34011 | 10823 ft | 318 kts | 177° |
| 2026-04-29 18:15 | 39.47024 | -86.33621 | 11129 ft | 342 kts | 178° |
| 2026-04-29 18:15 | 39.44622 | -86.33200 | 11776 ft | 352 kts | 178° |
| 2026-04-29 18:16 | 39.42180 | -86.32759 | 12631 ft | 355 kts | 178° |
| 2026-04-29 18:16 | 39.39719 | -86.32315 | 13467 ft | 360 kts | 178° |
| 2026-04-29 18:16 | 39.37219 | -86.31867 | 14256 ft | 366 kts | 179° |
| 2026-04-29 18:16 | 39.34711 | -86.31431 | 15047 ft | 370 kts | 180° |
| 2026-04-29 18:17 | 39.32134 | -86.31103 | 15865 ft | 373 kts | 182° |
| 2026-04-29 18:17 | 39.29532 | -86.30833 | 16686 ft | 377 kts | 183° |
| 2026-04-29 18:17 | 39.26899 | -86.30572 | 17447 ft | 382 kts | 184° |
| 2026-04-29 18:17 | 39.24231 | -86.30301 | 18177 ft | 388 kts | 184° |
| 2026-04-29 18:18 | 39.21524 | -86.30014 | 18880 ft | 393 kts | 184° |
| 2026-04-29 18:18 | 39.18773 | -86.29714 | 19581 ft | 398 kts | 184° |
| 2026-04-29 18:18 | 39.16005 | -86.29406 | 20327 ft | 401 kts | 184° |
| 2026-04-29 18:18 | 39.13209 | -86.29092 | 21041 ft | 404 kts | 184° |
| 2026-04-29 18:19 | 39.10386 | -86.28776 | 21680 ft | 409 kts | 184° |
| 2026-04-29 18:19 | 39.07540 | -86.28460 | 22299 ft | 413 kts | 185° |
| 2026-04-29 18:19 | 39.04664 | -86.28142 | 22904 ft | 417 kts | 185° |
| 2026-04-29 18:19 | 39.01758 | -86.27821 | 23487 ft | 421 kts | 185° |
| 2026-04-29 18:20 | 38.98825 | -86.27499 | 24054 ft | 425 kts | 185° |
| 2026-04-29 18:20 | 38.95897 | -86.27177 | 24617 ft | 428 kts | 185° |
| 2026-04-29 18:20 | 38.92917 | -86.26848 | 25162 ft | 432 kts | 185° |
| 2026-04-29 18:20 | 38.89911 | -86.26515 | 25700 ft | 435 kts | 185° |
| 2026-04-29 18:21 | 38.86886 | -86.26180 | 26226 ft | 437 kts | 186° |
| 2026-04-29 18:21 | 38.83844 | -86.25844 | 26703 ft | 440 kts | 186° |
| 2026-04-29 18:21 | 38.80780 | -86.25507 | 27170 ft | 443 kts | 186° |
| 2026-04-29 18:21 | 38.77703 | -86.25168 | 27670 ft | 445 kts | 186° |
| 2026-04-29 18:22 | 38.74605 | -86.24826 | 28130 ft | 448 kts | 186° |
| 2026-04-29 18:22 | 38.71491 | -86.24483 | 28558 ft | 450 kts | 186° |
| 2026-04-29 18:22 | 38.68357 | -86.24138 | 28970 ft | 453 kts | 186° |
| 2026-04-29 18:22 | 38.65203 | -86.23790 | 29360 ft | 456 kts | 187° |
| 2026-04-29 18:23 | 38.62031 | -86.23442 | 29748 ft | 458 kts | 187° |
| 2026-04-29 18:23 | 38.58841 | -86.23092 | 30114 ft | 461 kts | 187° |
| 2026-04-29 18:23 | 38.55651 | -86.22805 | 30461 ft | 457 kts | 191° |
| 2026-04-29 18:23 | 38.52479 | -86.22784 | 30840 ft | 453 kts | 193° |
| 2026-04-29 18:24 | 38.49334 | -86.22879 | 31292 ft | 451 kts | 194° |
| 2026-04-29 18:24 | 38.46212 | -86.23008 | 31778 ft | 448 kts | 194° |
| 2026-04-29 18:24 | 38.43097 | -86.23136 | 32196 ft | 448 kts | 194° |
| 2026-04-29 18:24 | 38.39983 | -86.23249 | 32555 ft | 448 kts | 194° |
| 2026-04-29 18:25 | 38.36862 | -86.23347 | 32952 ft | 448 kts | 194° |
| 2026-04-29 18:25 | 38.33747 | -86.23433 | 33309 ft | 448 kts | 194° |
| 2026-04-29 18:25 | 38.30630 | -86.23511 | 33655 ft | 448 kts | 194° |
| 2026-04-29 18:25 | 38.27515 | -86.23585 | 34029 ft | 447 kts | 194° |
| 2026-04-29 18:26 | 38.24408 | -86.23657 | 34414 ft | 446 kts | 194° |
| 2026-04-29 18:26 | 38.21306 | -86.23730 | 34719 ft | 446 kts | 194° |
| 2026-04-29 18:26 | 38.18244 | -86.23804 | 35002 ft | 446 kts | 194° |
| 2026-04-29 18:26 | 38.15136 | -86.23880 | 35246 ft | 447 kts | 194° |
| 2026-04-29 18:27 | 38.13037 | -86.23932 | 35439 ft | 447 kts | 194° |
| 2026-04-29 18:27 | 38.09933 | -86.24006 | 35750 ft | 446 kts | 193° |
| 2026-04-29 18:27 | 38.06829 | -86.24082 | 36062 ft | 446 kts | 193° |
| 2026-04-29 18:27 | 38.03726 | -86.24156 | 36326 ft | 446 kts | 193° |
| 2026-04-29 18:28 | 37.99610 | -86.24255 | 36594 ft | 447 kts | 193° |
| 2026-04-29 18:28 | 37.96495 | -86.24330 | 36867 ft | 446 kts | 193° |
| 2026-04-29 18:28 | 37.94409 | -86.24378 | 37161 ft | 443 kts | 193° |
| 2026-04-29 18:28 | 37.91348 | -86.24446 | 37634 ft | 437 kts | 193° |
| 2026-04-29 18:29 | 37.88342 | -86.24608 | 37952 ft | 427 kts | 198° |
| 2026-04-29 18:29 | 37.85419 | -86.25092 | 38159 ft | 423 kts | 201° |
| 2026-04-29 18:29 | 37.82515 | -86.25674 | 38285 ft | 423 kts | 201° |
| 2026-04-29 18:30 | 37.76662 | -86.26908 | 38505 ft | 428 kts | 201° |
| 2026-04-29 18:30 | 37.73762 | -86.27500 | 38717 ft | 428 kts | 201° |
| 2026-04-29 18:30 | 37.70784 | -86.28092 | 38935 ft | 427 kts | 201° |
| 2026-04-29 18:31 | 37.64902 | -86.29240 | 38987 ft | 432 kts | 200° |
| 2026-04-29 18:31 | 37.58979 | -86.30372 | 38982 ft | 428 kts | 200° |
| 2026-04-29 18:32 | 37.53111 | -86.31493 | 38986 ft | 425 kts | 201° |
| 2026-04-29 18:32 | 37.44367 | -86.33169 | 38992 ft | 422 kts | 201° |
| 2026-04-29 18:33 | 37.38551 | -86.34285 | 39001 ft | 423 kts | 201° |
| 2026-04-29 18:33 | 37.32752 | -86.35396 | 38998 ft | 425 kts | 201° |
| 2026-04-29 18:34 | 37.27834 | -86.36337 | 39000 ft | 428 kts | 201° |
| 2026-04-29 18:34 | 37.20964 | -86.37645 | 39013 ft | 431 kts | 201° |
| 2026-04-29 18:35 | 37.15023 | -86.38773 | 39019 ft | 433 kts | 201° |
| 2026-04-29 18:35 | 37.09050 | -86.39906 | 39008 ft | 435 kts | 201° |
| 2026-04-29 18:36 | 37.03049 | -86.41043 | 39026 ft | 437 kts | 201° |
| 2026-04-29 18:36 | 36.96955 | -86.41904 | 39020 ft | 451 kts | 192° |
| 2026-04-29 18:37 | 36.93782 | -86.41629 | 39015 ft | 466 kts | 182° |
| 2026-04-29 18:37 | 36.90572 | -86.40798 | 39037 ft | 473 kts | 179° |
| 2026-04-29 18:37 | 36.84164 | -86.38836 | 39028 ft | 474 kts | 178° |
| 2026-04-29 18:38 | 36.77771 | -86.36859 | 39021 ft | 473 kts | 178° |
| 2026-04-29 18:38 | 36.71422 | -86.34963 | 39005 ft | 472 kts | 179° |
| 2026-04-29 18:39 | 36.65022 | -86.33090 | 39011 ft | 471 kts | 179° |
| 2026-04-29 18:39 | 36.58632 | -86.31230 | 39010 ft | 471 kts | 179° |
| 2026-04-29 18:40 | 36.52261 | -86.29374 | 39017 ft | 470 kts | 179° |
| 2026-04-29 18:40 | 36.45896 | -86.27524 | 39032 ft | 469 kts | 179° |
| 2026-04-29 18:41 | 36.33187 | -86.23840 | 39020 ft | 472 kts | 179° |
| 2026-04-29 18:42 | 36.26783 | -86.21989 | 39004 ft | 473 kts | 179° |
| 2026-04-29 18:42 | 36.20364 | -86.20133 | 38983 ft | 474 kts | 179° |
| 2026-04-29 18:43 | 36.13935 | -86.18278 | 38981 ft | 475 kts | 179° |
| 2026-04-29 18:43 | 36.07501 | -86.16424 | 38972 ft | 474 kts | 179° |
| 2026-04-29 18:44 | 36.01074 | -86.14575 | 38973 ft | 473 kts | 179° |
| 2026-04-29 18:44 | 35.94662 | -86.12733 | 38970 ft | 473 kts | 179° |
| 2026-04-29 18:45 | 35.88249 | -86.10896 | 38974 ft | 472 kts | 179° |
| 2026-04-29 18:45 | 35.81842 | -86.09063 | 38969 ft | 472 kts | 179° |
| 2026-04-29 18:46 | 35.75481 | -86.07249 | 38976 ft | 472 kts | 179° |
| 2026-04-29 18:46 | 35.69086 | -86.05428 | 38966 ft | 472 kts | 179° |
| 2026-04-29 18:47 | 35.62678 | -86.03602 | 38976 ft | 472 kts | 179° |
| 2026-04-29 18:47 | 35.56268 | -86.01780 | 38979 ft | 473 kts | 179° |
| 2026-04-29 18:48 | 35.49845 | -85.99957 | 38969 ft | 474 kts | 179° |
| 2026-04-29 18:48 | 35.43415 | -85.97923 | 38974 ft | 479 kts | 175° |
| 2026-04-29 18:49 | 35.36997 | -85.95728 | 38976 ft | 479 kts | 175° |
| 2026-04-29 18:49 | 35.30564 | -85.93540 | 38973 ft | 479 kts | 175° |
| 2026-04-29 18:50 | 35.24124 | -85.91386 | 38983 ft | 480 kts | 175° |
| 2026-04-29 18:50 | 35.17717 | -85.89263 | 38985 ft | 481 kts | 175° |
| 2026-04-29 18:51 | 35.11244 | -85.87124 | 38981 ft | 482 kts | 175° |
| 2026-04-29 18:51 | 35.04773 | -85.84988 | 38978 ft | 482 kts | 175° |
| 2026-04-29 18:52 | 34.98290 | -85.82851 | 38972 ft | 484 kts | 174° |
| 2026-04-29 18:52 | 34.91790 | -85.80711 | 38976 ft | 485 kts | 174° |
| 2026-04-29 18:53 | 34.85277 | -85.78567 | 38981 ft | 484 kts | 174° |
| 2026-04-29 18:53 | 34.78762 | -85.76428 | 38989 ft | 485 kts | 174° |
| 2026-04-29 18:54 | 34.72241 | -85.74292 | 38992 ft | 486 kts | 174° |
| 2026-04-29 18:54 | 34.65707 | -85.72152 | 38997 ft | 486 kts | 173° |
| 2026-04-29 18:55 | 34.59210 | -85.70030 | 38994 ft | 487 kts | 173° |
| 2026-04-29 18:55 | 34.52652 | -85.67891 | 38984 ft | 488 kts | 173° |
| 2026-04-29 18:56 | 34.46085 | -85.65753 | 38995 ft | 489 kts | 173° |
| 2026-04-29 18:56 | 34.39495 | -85.63612 | 38989 ft | 490 kts | 173° |
| 2026-04-29 18:57 | 34.32902 | -85.61472 | 38999 ft | 490 kts | 173° |
| 2026-04-29 18:57 | 34.26310 | -85.59335 | 38997 ft | 490 kts | 173° |
| 2026-04-29 18:58 | 34.19710 | -85.57200 | 38993 ft | 491 kts | 173° |
| 2026-04-29 18:58 | 34.13106 | -85.55068 | 38986 ft | 491 kts | 173° |
| 2026-04-29 18:59 | 34.06501 | -85.52938 | 38996 ft | 491 kts | 173° |
| 2026-04-29 18:59 | 33.99903 | -85.50813 | 39000 ft | 490 kts | 173° |
| 2026-04-29 19:00 | 33.93306 | -85.48693 | 38996 ft | 490 kts | 172° |
| 2026-04-29 19:00 | 33.86756 | -85.46593 | 39005 ft | 490 kts | 172° |
| 2026-04-29 19:01 | 33.80161 | -85.44480 | 39004 ft | 490 kts | 172° |
| 2026-04-29 19:01 | 33.73568 | -85.42369 | 39014 ft | 490 kts | 172° |
| 2026-04-29 19:02 | 33.68089 | -85.40618 | 39031 ft | 490 kts | 172° |
| 2026-04-29 19:02 | 33.60376 | -85.38160 | 39033 ft | 491 kts | 172° |
| 2026-04-29 19:03 | 33.53765 | -85.36057 | 39029 ft | 492 kts | 172° |
| 2026-04-29 19:03 | 33.47144 | -85.33952 | 39044 ft | 493 kts | 172° |
| 2026-04-29 19:04 | 33.40508 | -85.31847 | 39031 ft | 493 kts | 172° |
| 2026-04-29 19:04 | 33.33871 | -85.29744 | 39029 ft | 494 kts | 172° |
| 2026-04-29 19:05 | 33.27229 | -85.27642 | 39016 ft | 494 kts | 172° |
| 2026-04-29 19:05 | 33.20596 | -85.25546 | 39012 ft | 493 kts | 172° |
| 2026-04-29 19:06 | 33.14002 | -85.23467 | 39017 ft | 493 kts | 172° |
| 2026-04-29 19:07 | 33.04062 | -85.20334 | 39008 ft | 493 kts | 171° |
| 2026-04-29 19:07 | 32.97449 | -85.18108 | 39014 ft | 493 kts | 170° |
| 2026-04-29 19:08 | 32.90863 | -85.15819 | 39006 ft | 493 kts | 169° |
| 2026-04-29 19:08 | 32.84263 | -85.13537 | 39014 ft | 493 kts | 169° |
| 2026-04-29 19:09 | 32.77672 | -85.11281 | 39001 ft | 493 kts | 170° |
| 2026-04-29 19:09 | 32.71076 | -85.09035 | 39004 ft | 493 kts | 169° |
| 2026-04-29 19:10 | 32.64480 | -85.06791 | 39001 ft | 493 kts | 169° |
| 2026-04-29 19:10 | 32.57876 | -85.04547 | 38991 ft | 493 kts | 169° |
| 2026-04-29 19:11 | 32.51318 | -85.02321 | 38980 ft | 494 kts | 169° |
| 2026-04-29 19:11 | 32.44709 | -85.00082 | 38972 ft | 493 kts | 169° |
| 2026-04-29 19:12 | 32.38109 | -84.97848 | 38963 ft | 493 kts | 169° |
| 2026-04-29 19:12 | 32.31510 | -84.95619 | 38953 ft | 493 kts | 169° |
| 2026-04-29 19:13 | 32.24913 | -84.93393 | 38943 ft | 493 kts | 169° |
| 2026-04-29 19:13 | 32.18314 | -84.91169 | 38948 ft | 492 kts | 169° |
| 2026-04-29 19:14 | 32.11737 | -84.88957 | 38957 ft | 491 kts | 169° |
| 2026-04-29 19:14 | 32.06274 | -84.87124 | 38961 ft | 491 kts | 169° |
| 2026-04-29 19:15 | 31.99708 | -84.84923 | 38974 ft | 490 kts | 169° |
| 2026-04-29 19:15 | 31.92075 | -84.82365 | 38971 ft | 490 kts | 168° |
| 2026-04-29 19:16 | 31.85517 | -84.80172 | 38981 ft | 490 kts | 169° |
| 2026-04-29 19:16 | 31.80068 | -84.78355 | 38986 ft | 490 kts | 169° |
| 2026-04-29 19:17 | 31.73510 | -84.76169 | 38981 ft | 490 kts | 169° |
| 2026-04-29 19:17 | 31.66947 | -84.73984 | 38987 ft | 490 kts | 168° |
| 2026-04-29 19:18 | 31.60389 | -84.71803 | 38997 ft | 489 kts | 168° |
| 2026-04-29 19:18 | 31.53830 | -84.69626 | 38993 ft | 489 kts | 168° |
| 2026-04-29 19:19 | 31.47277 | -84.67454 | 38991 ft | 489 kts | 168° |
| 2026-04-29 19:19 | 31.40724 | -84.65285 | 38990 ft | 490 kts | 168° |
| 2026-04-29 19:20 | 31.34167 | -84.63117 | 38990 ft | 490 kts | 168° |
| 2026-04-29 19:20 | 31.27824 | -84.60079 | 38994 ft | 495 kts | 156° |
| 2026-04-29 19:21 | 31.21681 | -84.56410 | 38985 ft | 496 kts | 156° |
| 2026-04-29 19:21 | 31.15576 | -84.52761 | 38991 ft | 495 kts | 156° |
| 2026-04-29 19:22 | 31.09413 | -84.49145 | 38990 ft | 495 kts | 156° |
| 2026-04-29 19:22 | 31.03241 | -84.45558 | 38985 ft | 495 kts | 156° |
| 2026-04-29 19:23 | 30.97077 | -84.41984 | 38997 ft | 495 kts | 156° |
| 2026-04-29 19:23 | 30.90909 | -84.38411 | 38988 ft | 495 kts | 156° |
| 2026-04-29 19:24 | 30.84748 | -84.34844 | 38998 ft | 494 kts | 156° |
| 2026-04-29 19:24 | 30.78627 | -84.31305 | 39001 ft | 494 kts | 156° |
| 2026-04-29 19:25 | 30.72470 | -84.27752 | 39011 ft | 494 kts | 156° |
| 2026-04-29 19:25 | 30.66315 | -84.24204 | 39011 ft | 493 kts | 156° |
| 2026-04-29 19:26 | 30.60164 | -84.20663 | 38994 ft | 493 kts | 156° |
| 2026-04-29 19:26 | 30.54011 | -84.17126 | 38990 ft | 493 kts | 156° |
| 2026-04-29 19:27 | 30.47870 | -84.13600 | 39007 ft | 492 kts | 156° |
| 2026-04-29 19:27 | 30.41719 | -84.10074 | 39002 ft | 493 kts | 156° |
| 2026-04-29 19:28 | 30.35600 | -84.06497 | 39002 ft | 493 kts | 153° |
| 2026-04-29 19:28 | 30.29631 | -84.02568 | 39005 ft | 493 kts | 151° |
| 2026-04-29 19:29 | 30.23704 | -83.98556 | 39000 ft | 493 kts | 151° |
| 2026-04-29 19:29 | 30.17772 | -83.94582 | 39003 ft | 492 kts | 152° |
| 2026-04-29 19:30 | 30.11833 | -83.90646 | 39009 ft | 492 kts | 152° |
| 2026-04-29 19:30 | 30.05927 | -83.86747 | 39005 ft | 492 kts | 152° |
| 2026-04-29 19:31 | 29.99990 | -83.82831 | 39011 ft | 492 kts | 152° |
| 2026-04-29 19:31 | 29.94042 | -83.78914 | 39026 ft | 492 kts | 152° |
| 2026-04-29 19:32 | 29.88096 | -83.75001 | 39018 ft | 492 kts | 152° |
| 2026-04-29 19:32 | 29.82141 | -83.71091 | 39022 ft | 492 kts | 152° |
| 2026-04-29 19:33 | 29.76192 | -83.67186 | 39011 ft | 492 kts | 152° |
| 2026-04-29 19:33 | 29.70236 | -83.63283 | 39022 ft | 493 kts | 152° |
| 2026-04-29 19:34 | 29.64278 | -83.59384 | 39015 ft | 492 kts | 152° |
| 2026-04-29 19:34 | 29.58359 | -83.55516 | 39007 ft | 493 kts | 152° |
| 2026-04-29 19:35 | 29.52364 | -83.51602 | 39024 ft | 493 kts | 152° |
| 2026-04-29 19:35 | 29.46396 | -83.47714 | 39021 ft | 493 kts | 152° |
| 2026-04-29 19:36 | 29.40471 | -83.43859 | 39021 ft | 492 kts | 152° |
| 2026-04-29 19:36 | 29.34511 | -83.39983 | 39012 ft | 492 kts | 152° |
| 2026-04-29 19:37 | 29.28502 | -83.36215 | 39016 ft | 491 kts | 159° |
| 2026-04-29 19:37 | 29.21999 | -83.34136 | 39028 ft | 483 kts | 176° |
| 2026-04-29 19:38 | 29.15330 | -83.33884 | 39032 ft | 479 kts | 184° |
| 2026-04-29 19:38 | 29.08658 | -83.33859 | 39027 ft | 480 kts | 184° |
| 2026-04-29 19:39 | 29.01972 | -83.33747 | 39032 ft | 481 kts | 183° |
| 2026-04-29 19:39 | 28.95277 | -83.33576 | 39031 ft | 483 kts | 179° |
| 2026-04-29 19:39 | 28.91971 | -83.32796 | 39051 ft | 488 kts | 165° |
| 2026-04-29 19:40 | 28.88744 | -83.31586 | 39049 ft | 489 kts | 164° |
| 2026-04-29 19:40 | 28.82294 | -83.29080 | 39041 ft | 490 kts | 164° |
| 2026-04-29 19:41 | 28.75805 | -83.26647 | 39047 ft | 491 kts | 165° |
| 2026-04-29 19:41 | 28.69328 | -83.24283 | 39057 ft | 492 kts | 165° |
| 2026-04-29 19:42 | 28.62763 | -83.21899 | 38477 ft | 500 kts | 165° |
| 2026-04-29 19:42 | 28.60528 | -83.21086 | 38092 ft | 499 kts | 165° |
| 2026-04-29 19:42 | 28.56162 | -83.19494 | 37244 ft | 496 kts | 165° |
| 2026-04-29 19:42 | 28.52879 | -83.18294 | 36592 ft | 494 kts | 165° |
| 2026-04-29 19:43 | 28.49604 | -83.17096 | 35902 ft | 492 kts | 165° |
| 2026-04-29 19:43 | 28.46342 | -83.15902 | 35121 ft | 492 kts | 165° |
| 2026-04-29 19:43 | 28.43072 | -83.14706 | 34322 ft | 493 kts | 165° |
| 2026-04-29 19:43 | 28.39807 | -83.13514 | 33491 ft | 493 kts | 165° |
| 2026-04-29 19:44 | 28.36537 | -83.12321 | 32635 ft | 493 kts | 165° |
| 2026-04-29 19:44 | 28.33276 | -83.11130 | 31991 ft | 489 kts | 165° |
| 2026-04-29 19:44 | 28.30057 | -83.09954 | 31374 ft | 484 kts | 165° |
| 2026-04-29 19:44 | 28.26909 | -83.08805 | 30772 ft | 479 kts | 165° |
| 2026-04-29 19:45 | 28.23753 | -83.07656 | 30171 ft | 474 kts | 165° |
| 2026-04-29 19:45 | 28.20630 | -83.06519 | 29570 ft | 469 kts | 165° |
| 2026-04-29 19:45 | 28.17533 | -83.05391 | 28968 ft | 464 kts | 165° |
| 2026-04-29 19:45 | 28.14475 | -83.04279 | 28350 ft | 459 kts | 165° |
| 2026-04-29 19:46 | 28.11445 | -83.03178 | 27736 ft | 455 kts | 165° |
| 2026-04-29 19:46 | 28.08451 | -83.02091 | 27258 ft | 449 kts | 165° |
| 2026-04-29 19:46 | 28.05488 | -83.00926 | 27134 ft | 447 kts | 162° |
| 2026-04-29 19:46 | 28.02636 | -82.99665 | 27051 ft | 434 kts | 160° |
| 2026-04-29 19:47 | 27.99887 | -82.98392 | 27041 ft | 421 kts | 160° |
| 2026-04-29 19:47 | 27.97219 | -82.97145 | 27035 ft | 409 kts | 160° |
| 2026-04-29 19:47 | 27.94593 | -82.95928 | 26547 ft | 409 kts | 160° |
| 2026-04-29 19:47 | 27.91925 | -82.94705 | 25544 ft | 420 kts | 160° |
| 2026-04-29 19:48 | 27.89174 | -82.93458 | 24932 ft | 422 kts | 160° |
| 2026-04-29 19:48 | 27.87369 | -82.92642 | 24602 ft | 422 kts | 160° |
| 2026-04-29 19:48 | 27.83712 | -82.90994 | 24181 ft | 425 kts | 160° |
| 2026-04-29 19:48 | 27.80954 | -82.89754 | 23847 ft | 428 kts | 160° |
| 2026-04-29 19:49 | 27.78192 | -82.88513 | 23508 ft | 425 kts | 160° |
| 2026-04-29 19:49 | 27.75493 | -82.87300 | 23170 ft | 422 kts | 160° |
| 2026-04-29 19:49 | 27.72770 | -82.86078 | 22851 ft | 420 kts | 160° |
| 2026-04-29 19:49 | 27.70058 | -82.84861 | 22523 ft | 418 kts | 160° |
| 2026-04-29 19:50 | 27.67363 | -82.83652 | 22202 ft | 416 kts | 160° |
| 2026-04-29 19:50 | 27.64674 | -82.82447 | 21886 ft | 415 kts | 160° |
| 2026-04-29 19:50 | 27.61994 | -82.81247 | 21569 ft | 414 kts | 160° |
| 2026-04-29 19:50 | 27.59319 | -82.80049 | 21256 ft | 413 kts | 160° |
| 2026-04-29 19:51 | 27.56653 | -82.78857 | 20941 ft | 412 kts | 160° |
| 2026-04-29 19:51 | 27.53989 | -82.77665 | 20625 ft | 412 kts | 160° |
| 2026-04-29 19:51 | 27.51331 | -82.76476 | 20316 ft | 411 kts | 160° |
| 2026-04-29 19:51 | 27.48673 | -82.75287 | 19995 ft | 411 kts | 160° |
| 2026-04-29 19:52 | 27.46018 | -82.74102 | 19683 ft | 410 kts | 160° |
| 2026-04-29 19:52 | 27.43366 | -82.72918 | 19361 ft | 409 kts | 160° |
| 2026-04-29 19:52 | 27.40722 | -82.71738 | 19043 ft | 408 kts | 160° |
| 2026-04-29 19:52 | 27.38082 | -82.70561 | 18738 ft | 406 kts | 160° |
| 2026-04-29 19:53 | 27.35460 | -82.69391 | 18430 ft | 405 kts | 160° |
| 2026-04-29 19:53 | 27.32877 | -82.68240 | 18127 ft | 403 kts | 160° |
| 2026-04-29 19:53 | 27.30272 | -82.67081 | 17813 ft | 402 kts | 160° |
| 2026-04-29 19:53 | 27.27683 | -82.65919 | 17490 ft | 400 kts | 158° |
| 2026-04-29 19:54 | 27.22978 | -82.62612 | 16862 ft | 397 kts | 144° |
| 2026-04-29 19:54 | 27.20744 | -82.60790 | 16549 ft | 395 kts | 144° |
| 2026-04-29 19:54 | 27.18524 | -82.58988 | 16238 ft | 393 kts | 144° |
| 2026-04-29 19:55 | 27.16305 | -82.57214 | 15935 ft | 390 kts | 144° |
| 2026-04-29 19:55 | 27.14082 | -82.55462 | 15632 ft | 388 kts | 145° |
| 2026-04-29 19:55 | 27.11874 | -82.53738 | 15333 ft | 385 kts | 145° |
| 2026-04-29 19:55 | 27.09699 | -82.52047 | 15036 ft | 383 kts | 145° |
| 2026-04-29 19:56 | 27.07513 | -82.50351 | 14742 ft | 381 kts | 145° |
| 2026-04-29 19:56 | 27.05341 | -82.48667 | 14443 ft | 378 kts | 145° |
| 2026-04-29 19:56 | 27.03183 | -82.46994 | 14154 ft | 376 kts | 145° |
| 2026-04-29 19:56 | 27.01046 | -82.45320 | 13865 ft | 373 kts | 144° |
| 2026-04-29 19:57 | 26.98934 | -82.43642 | 13581 ft | 371 kts | 144° |
| 2026-04-29 19:57 | 26.97545 | -82.42533 | 13393 ft | 369 kts | 144° |
| 2026-04-29 19:57 | 26.94754 | -82.40308 | 13012 ft | 366 kts | 144° |
| 2026-04-29 19:57 | 26.92683 | -82.38661 | 12733 ft | 364 kts | 144° |
| 2026-04-29 19:58 | 26.90620 | -82.37025 | 12457 ft | 362 kts | 144° |
| 2026-04-29 19:58 | 26.88573 | -82.35403 | 12184 ft | 360 kts | 144° |
| 2026-04-29 19:58 | 26.86535 | -82.33788 | 11899 ft | 357 kts | 144° |
| 2026-04-29 19:58 | 26.84509 | -82.32183 | 11628 ft | 355 kts | 144° |
| 2026-04-29 19:59 | 26.82495 | -82.30589 | 11354 ft | 353 kts | 144° |
| 2026-04-29 19:59 | 26.80496 | -82.29008 | 11087 ft | 351 kts | 144° |
| 2026-04-29 19:59 | 26.78513 | -82.27440 | 10871 ft | 347 kts | 144° |
| 2026-04-29 19:59 | 26.76552 | -82.25890 | 10676 ft | 343 kts | 144° |
| 2026-04-29 20:00 | 26.74634 | -82.24374 | 10477 ft | 331 kts | 144° |
| 2026-04-29 20:00 | 26.72787 | -82.22915 | 10284 ft | 319 kts | 144° |
| 2026-04-29 20:00 | 26.71011 | -82.21513 | 10113 ft | 307 kts | 144° |
| 2026-04-29 20:00 | 26.69299 | -82.20161 | 9949 ft | 296 kts | 144° |
| 2026-04-29 20:01 | 26.67642 | -82.18853 | 9806 ft | 289 kts | 144° |
| 2026-04-29 20:01 | 26.66009 | -82.17565 | 9633 ft | 286 kts | 144° |
| 2026-04-29 20:01 | 26.64936 | -82.16721 | 9542 ft | 285 kts | 144° |
| 2026-04-29 20:01 | 26.63345 | -82.15420 | 9388 ft | 281 kts | 144° |
| 2026-04-29 20:02 | 26.61751 | -82.14153 | 9228 ft | 281 kts | 145° |
| 2026-04-29 20:02 | 26.59631 | -82.12512 | 9031 ft | 278 kts | 145° |
| 2026-04-29 20:02 | 26.58043 | -82.11273 | 8881 ft | 278 kts | 145° |
| 2026-04-29 20:02 | 26.57507 | -82.10853 | 8821 ft | 278 kts | 145° |
| 2026-04-29 20:03 | 26.55390 | -82.09192 | 8640 ft | 278 kts | 144° |
| 2026-04-29 20:03 | 26.53808 | -82.07950 | 8475 ft | 278 kts | 144° |
| 2026-04-29 20:03 | 26.52223 | -82.06703 | 8313 ft | 279 kts | 144° |
| 2026-04-29 20:03 | 26.50638 | -82.05456 | 8159 ft | 279 kts | 144° |
| 2026-04-29 20:04 | 26.49075 | -82.04226 | 8022 ft | 278 kts | 144° |
| 2026-04-29 20:04 | 26.47495 | -82.02985 | 7862 ft | 278 kts | 144° |
| 2026-04-29 20:04 | 26.45910 | -82.01741 | 7701 ft | 278 kts | 144° |
| 2026-04-29 20:04 | 26.44337 | -82.00491 | 7551 ft | 277 kts | 141° |
| 2026-04-29 20:05 | 26.43070 | -81.98889 | 7399 ft | 276 kts | 124° |
| 2026-04-29 20:05 | 26.41999 | -81.97118 | 7254 ft | 275 kts | 124° |
| 2026-04-29 20:05 | 26.40923 | -81.95358 | 7098 ft | 274 kts | 124° |
| 2026-04-29 20:05 | 26.39841 | -81.93609 | 6948 ft | 273 kts | 123° |
| 2026-04-29 20:06 | 26.39137 | -81.91664 | 6774 ft | 272 kts | 97° |
| 2026-04-29 20:06 | 26.39186 | -81.89572 | 6652 ft | 269 kts | 82° |
| 2026-04-29 20:06 | 26.39473 | -81.87508 | 6498 ft | 269 kts | 81° |
| 2026-04-29 20:06 | 26.39763 | -81.85450 | 6349 ft | 268 kts | 81° |
| 2026-04-29 20:07 | 26.40042 | -81.83396 | 6215 ft | 267 kts | 81° |
| 2026-04-29 20:07 | 26.40312 | -81.81350 | 6061 ft | 267 kts | 82° |
| 2026-04-29 20:07 | 26.40776 | -81.79357 | 5883 ft | 267 kts | 61° |
| 2026-04-29 20:07 | 26.41829 | -81.77661 | 5774 ft | 265 kts | 53° |
| 2026-04-29 20:08 | 26.42913 | -81.76035 | 5638 ft | 264 kts | 53° |
| 2026-04-29 20:08 | 26.43652 | -81.74920 | 5537 ft | 264 kts | 53° |
| 2026-04-29 20:08 | 26.45091 | -81.72725 | 5332 ft | 265 kts | 54° |
| 2026-04-29 20:08 | 26.46176 | -81.71059 | 5194 ft | 266 kts | 54° |
| 2026-04-29 20:09 | 26.47272 | -81.69396 | 5055 ft | 264 kts | 52° |
| 2026-04-29 20:09 | 26.48383 | -81.67806 | 4903 ft | 254 kts | 51° |
| 2026-04-29 20:09 | 26.49452 | -81.66309 | 4774 ft | 239 kts | 51° |
| 2026-04-29 20:09 | 26.50466 | -81.64897 | 4648 ft | 230 kts | 51° |
| 2026-04-29 20:10 | 26.51422 | -81.63502 | 4360 ft | 223 kts | 55° |
| 2026-04-29 20:10 | 26.52306 | -81.62068 | 3863 ft | 225 kts | 56° |
| 2026-04-29 20:10 | 26.53190 | -81.60626 | 3384 ft | 225 kts | 56° |
| 2026-04-29 20:10 | 26.54077 | -81.59199 | 3047 ft | 224 kts | 55° |
| 2026-04-29 20:11 | 26.54971 | -81.57764 | 3022 ft | 227 kts | 55° |
| 2026-04-29 20:11 | 26.55868 | -81.56324 | 2973 ft | 224 kts | 55° |
| 2026-04-29 20:11 | 26.56785 | -81.54920 | 2955 ft | 223 kts | 46° |
| 2026-04-29 20:11 | 26.58134 | -81.54108 | 2979 ft | 225 kts | 9° |
| 2026-04-29 20:12 | 26.59666 | -81.54329 | 2981 ft | 226 kts | 336° |
| 2026-04-29 20:12 | 26.61007 | -81.55234 | 2983 ft | 227 kts | 324° |
| 2026-04-29 20:12 | 26.62285 | -81.56271 | 2970 ft | 227 kts | 323° |
| 2026-04-29 20:12 | 26.63319 | -81.57521 | 2947 ft | 217 kts | 292° |
| 2026-04-29 20:13 | 26.63401 | -81.59097 | 2975 ft | 199 kts | 252° |
| 2026-04-29 20:13 | 26.62951 | -81.60544 | 2863 ft | 198 kts | 250° |
| 2026-04-29 20:13 | 26.62350 | -81.61916 | 2625 ft | 195 kts | 238° |
| 2026-04-29 20:13 | 26.61626 | -81.63164 | 2367 ft | 185 kts | 235° |
| 2026-04-29 20:14 | 26.60910 | -81.64305 | 2135 ft | 175 kts | 234° |
| 2026-04-29 20:14 | 26.60199 | -81.65406 | 1904 ft | 173 kts | 234° |
| 2026-04-29 20:14 | 26.59522 | -81.66445 | 1694 ft | 155 kts | 234° |
| 2026-04-29 20:14 | 26.58923 | -81.67362 | 1477 ft | 139 kts | 235° |
| 2026-04-29 20:15 | 26.58370 | -81.68210 | 1324 ft | 133 kts | 235° |
| 2026-04-29 20:15 | 26.57837 | -81.69029 | 1145 ft | 131 kts | 236° |
| 2026-04-29 20:15 | 26.57303 | -81.69846 | 980 ft | 131 kts | 235° |
| 2026-04-29 20:15 | 26.56756 | -81.70679 | 803 ft | 134 kts | 235° |
| 2026-04-29 20:16 | 26.56210 | -81.71534 | 601 ft | 135 kts | 236° |
| 2026-04-29 20:16 | 26.55657 | -81.72376 | 453 ft | 133 kts | 234° |
| 2026-04-29 20:16 | 26.55120 | -81.73196 | 248 ft | 128 kts | 237° |
| 2026-04-29 20:16 | 26.54605 | -81.74001 | 87 ft | 127 kts | 235° |
| 2026-04-29 20:17 | 26.54122 | -81.74741 | 42 ft | 96 kts | 234° |
| 2026-04-29 20:17 | 26.53861 | -81.75159 | 43 ft | 40 kts | 227° |
| 2026-04-29 20:17 | 26.53724 | -81.75300 | 41 ft | 13 kts | 205° |
| 2026-04-29 20:17 | 26.53657 | -81.75329 | 43 ft | 7 kts | 200° |
| 2026-04-29 20:18 | 26.53611 | -81.75350 | 43 ft | 7 kts | 201° |
| 2026-04-29 20:18 | 26.53564 | -81.75388 | 43 ft | 17 kts | 233° |
| 2026-04-29 20:18 | 26.53501 | -81.75483 | 42 ft | 12 kts | 222° |
| 2026-04-29 20:18 | 26.53423 | -81.75462 | 42 ft | 13 kts | 145° |
| 2026-04-29 20:19 | 26.53342 | -81.75397 | 42 ft | 15 kts | 144° |
| 2026-04-29 20:19 | 26.53260 | -81.75331 | 43 ft | 14 kts | 146° |
| 2026-04-29 20:19 | 26.53184 | -81.75270 | 43 ft | 13 kts | 144° |
| 2026-04-29 20:19 | 26.53105 | -81.75206 | 43 ft | 15 kts | 144° |
| 2026-04-29 20:20 | 26.53017 | -81.75135 | 42 ft | 15 kts | 144° |
| 2026-04-29 20:20 | 26.52941 | -81.75073 | 42 ft | 10 kts | 143° |
| 2026-04-29 20:20 | 26.52908 | -81.75088 | 41 ft | 6 kts | 254° |
| 2026-04-29 20:20 | 26.52898 | -81.75134 | 43 ft | 6 kts | 256° |
| 2026-04-29 20:21 | 26.52895 | -81.75147 | 42 ft | 1 kts | 257° |